EW570PP UMMS-UUWW
Flight info
| Callsign | EW570PP |
|---|---|
| Flight time | 0h 56m |
| Altitude | 35000 |
| Route | SORFO L979 PASUD T52 BILRU |
| Aircraft | C750/M-SBDFGRWXY/S |
Departure
| Time | 2026-04-29 15:18 |
|---|---|
| Airport | Minsk National Airport (UMMS) |
Arrival
| Time | 2026-04-29 16:14 |
|---|---|
| Airport | Vnukovo International Airport (UUWW) |
| Time | Latitude | Longitude | Altitude | Speed | Heading |
|---|---|---|---|---|---|
| 2026-04-29 14:34 | 53.89668 | 28.01574 | 674 ft | 0 kts | 4° |
| 2026-04-29 14:42 | 53.89659 | 28.01574 | 674 ft | 2 kts | 4° |
| 2026-04-29 14:42 | 53.89645 | 28.01572 | 674 ft | 2 kts | 4° |
| 2026-04-29 14:42 | 53.89630 | 28.01575 | 674 ft | 2 kts | 335° |
| 2026-04-29 14:42 | 53.89619 | 28.01591 | 674 ft | 2 kts | 316° |
| 2026-04-29 14:43 | 53.89612 | 28.01601 | 674 ft | 0 kts | 317° |
| 2026-04-29 15:05 | 53.89616 | 28.01595 | 674 ft | 3 kts | 311° |
| 2026-04-29 15:05 | 53.89619 | 28.01562 | 674 ft | 4 kts | 248° |
| 2026-04-29 15:05 | 53.89588 | 28.01497 | 674 ft | 5 kts | 216° |
| 2026-04-29 15:05 | 53.89556 | 28.01503 | 674 ft | 4 kts | 116° |
| 2026-04-29 15:06 | 53.89534 | 28.01549 | 674 ft | 5 kts | 142° |
| 2026-04-29 15:06 | 53.89494 | 28.01607 | 674 ft | 9 kts | 136° |
| 2026-04-29 15:06 | 53.89433 | 28.01697 | 674 ft | 12 kts | 139° |
| 2026-04-29 15:06 | 53.89365 | 28.01799 | 674 ft | 13 kts | 138° |
| 2026-04-29 15:07 | 53.89295 | 28.01903 | 674 ft | 13 kts | 138° |
| 2026-04-29 15:07 | 53.89230 | 28.02002 | 674 ft | 10 kts | 142° |
| 2026-04-29 15:07 | 53.89176 | 28.02079 | 674 ft | 10 kts | 139° |
| 2026-04-29 15:07 | 53.89111 | 28.02173 | 674 ft | 14 kts | 139° |
| 2026-04-29 15:08 | 53.89024 | 28.02304 | 674 ft | 19 kts | 137° |
| 2026-04-29 15:08 | 53.88915 | 28.02464 | 674 ft | 22 kts | 139° |
| 2026-04-29 15:08 | 53.88804 | 28.02629 | 674 ft | 21 kts | 139° |
| 2026-04-29 15:08 | 53.88690 | 28.02799 | 674 ft | 22 kts | 139° |
| 2026-04-29 15:09 | 53.88573 | 28.02971 | 674 ft | 22 kts | 136° |
| 2026-04-29 15:09 | 53.88565 | 28.02985 | 674 ft | 22 kts | 137° |
| 2026-04-29 15:09 | 53.88455 | 28.03148 | 674 ft | 22 kts | 140° |
| 2026-04-29 15:10 | 53.88438 | 28.03172 | 674 ft | 20 kts | 139° |
| 2026-04-29 15:10 | 53.88388 | 28.03254 | 674 ft | 9 kts | 109° |
| 2026-04-29 15:11 | 53.88411 | 28.03342 | 674 ft | 8 kts | 48° |
| 2026-04-29 15:11 | 53.88459 | 28.03437 | 674 ft | 14 kts | 48° |
| 2026-04-29 15:11 | 53.88531 | 28.03576 | 674 ft | 17 kts | 47° |
| 2026-04-29 15:11 | 53.88615 | 28.03736 | 674 ft | 19 kts | 53° |
| 2026-04-29 15:12 | 53.88705 | 28.03912 | 674 ft | 20 kts | 47° |
| 2026-04-29 15:12 | 53.88770 | 28.04035 | 674 ft | 20 kts | 51° |
| 2026-04-29 15:12 | 53.88900 | 28.04288 | 674 ft | 21 kts | 49° |
| 2026-04-29 15:12 | 53.88998 | 28.04481 | 674 ft | 21 kts | 50° |
| 2026-04-29 15:13 | 53.89097 | 28.04673 | 674 ft | 19 kts | 50° |
| 2026-04-29 15:13 | 53.89177 | 28.04825 | 674 ft | 8 kts | 50° |
| 2026-04-29 15:13 | 53.89186 | 28.04916 | 674 ft | 8 kts | 131° |
| 2026-04-29 15:13 | 53.89136 | 28.04991 | 674 ft | 12 kts | 140° |
| 2026-04-29 15:14 | 53.89037 | 28.05138 | 674 ft | 22 kts | 139° |
| 2026-04-29 15:14 | 53.88914 | 28.05319 | 674 ft | 24 kts | 139° |
| 2026-04-29 15:14 | 53.88779 | 28.05518 | 674 ft | 26 kts | 139° |
| 2026-04-29 15:14 | 53.88680 | 28.05668 | 674 ft | 14 kts | 137° |
| 2026-04-29 15:15 | 53.88640 | 28.05797 | 674 ft | 11 kts | 86° |
| 2026-04-29 15:15 | 53.88650 | 28.05832 | 674 ft | 0 kts | 31° |
| 2026-04-29 15:15 | 53.88652 | 28.05834 | 674 ft | 0 kts | 31° |
| 2026-04-29 15:16 | 53.88657 | 28.05838 | 674 ft | 2 kts | 23° |
| 2026-04-29 15:16 | 53.88701 | 28.05841 | 674 ft | 11 kts | 351° |
| 2026-04-29 15:16 | 53.88767 | 28.05816 | 674 ft | 17 kts | 346° |
| 2026-04-29 15:16 | 53.88901 | 28.05740 | 674 ft | 8 kts | 326° |
| 2026-04-29 15:17 | 53.88932 | 28.05697 | 674 ft | 0 kts | 319° |
| 2026-04-29 15:17 | 53.88943 | 28.05680 | 674 ft | 8 kts | 319° |
| 2026-04-29 15:17 | 53.89281 | 28.05187 | 674 ft | 121 kts | 319° |
| 2026-04-29 15:17 | 53.89794 | 28.04414 | 806 ft | 168 kts | 321° |
| 2026-04-29 15:18 | 53.91065 | 28.02497 | 2183 ft | 196 kts | 320° |
| 2026-04-29 15:18 | 53.92056 | 28.00954 | 3208 ft | 196 kts | 322° |
| 2026-04-29 15:18 | 53.93111 | 27.99513 | 4119 ft | 201 kts | 320° |
| 2026-04-29 15:18 | 53.93805 | 27.98430 | 4710 ft | 205 kts | 321° |
| 2026-04-29 15:19 | 53.95293 | 27.96407 | 5790 ft | 215 kts | 334° |
| 2026-04-29 15:19 | 53.96827 | 27.96059 | 5965 ft | 244 kts | 11° |
| 2026-04-29 15:19 | 53.98553 | 27.97143 | 6014 ft | 282 kts | 18° |
| 2026-04-29 15:19 | 53.99865 | 27.97782 | 5965 ft | 292 kts | 14° |
| 2026-04-29 15:20 | 54.01725 | 27.98680 | 5969 ft | 265 kts | 14° |
| 2026-04-29 15:20 | 54.04093 | 27.99777 | 6644 ft | 265 kts | 15° |
| 2026-04-29 15:20 | 54.05673 | 28.01389 | 7784 ft | 282 kts | 43° |
| 2026-04-29 15:20 | 54.06744 | 28.04421 | 7953 ft | 306 kts | 71° |
| 2026-04-29 15:21 | 54.06800 | 28.07919 | 7966 ft | 299 kts | 101° |
| 2026-04-29 15:21 | 54.06450 | 28.10194 | 7956 ft | 291 kts | 97° |
| 2026-04-29 15:21 | 54.06357 | 28.14646 | 7968 ft | 277 kts | 89° |
| 2026-04-29 15:21 | 54.06323 | 28.17907 | 7954 ft | 279 kts | 87° |
| 2026-04-29 15:22 | 54.06308 | 28.21286 | 8102 ft | 287 kts | 87° |
| 2026-04-29 15:22 | 54.06368 | 28.23540 | 8305 ft | 286 kts | 81° |
| 2026-04-29 15:22 | 54.06661 | 28.28113 | 9311 ft | 297 kts | 81° |
| 2026-04-29 15:22 | 54.06799 | 28.30403 | 10121 ft | 299 kts | 81° |
| 2026-04-29 15:23 | 54.07074 | 28.35025 | 12017 ft | 299 kts | 81° |
| 2026-04-29 15:23 | 54.07215 | 28.37356 | 12883 ft | 300 kts | 80° |
| 2026-04-29 15:23 | 54.07894 | 28.40625 | 14027 ft | 299 kts | 52° |
| 2026-04-29 15:23 | 54.09923 | 28.43810 | 15523 ft | 303 kts | 39° |
| 2026-04-29 15:24 | 54.11381 | 28.46378 | 16559 ft | 311 kts | 53° |
| 2026-04-29 15:24 | 54.12046 | 28.48517 | 17238 ft | 316 kts | 64° |
| 2026-04-29 15:24 | 54.12910 | 28.52083 | 18289 ft | 321 kts | 65° |
| 2026-04-29 15:24 | 54.13696 | 28.55662 | 19283 ft | 327 kts | 66° |
| 2026-04-29 15:25 | 54.14464 | 28.59248 | 20243 ft | 331 kts | 66° |
| 2026-04-29 15:25 | 54.15264 | 28.62796 | 21138 ft | 337 kts | 65° |
| 2026-04-29 15:25 | 54.16106 | 28.66525 | 22011 ft | 343 kts | 66° |
| 2026-04-29 15:25 | 54.16973 | 28.70357 | 22916 ft | 348 kts | 67° |
| 2026-04-29 15:26 | 54.17858 | 28.74277 | 23793 ft | 353 kts | 67° |
| 2026-04-29 15:26 | 54.18744 | 28.78215 | 24484 ft | 362 kts | 67° |
| 2026-04-29 15:26 | 54.19678 | 28.82364 | 24779 ft | 380 kts | 67° |
| 2026-04-29 15:26 | 54.20625 | 28.86602 | 25676 ft | 382 kts | 67° |
| 2026-04-29 15:27 | 54.21587 | 28.90906 | 26524 ft | 384 kts | 67° |
| 2026-04-29 15:27 | 54.22545 | 28.95195 | 27281 ft | 388 kts | 67° |
| 2026-04-29 15:27 | 54.23506 | 28.99510 | 27936 ft | 393 kts | 67° |
| 2026-04-29 15:27 | 54.24485 | 29.03917 | 28620 ft | 397 kts | 67° |
| 2026-04-29 15:28 | 54.25479 | 29.08403 | 29269 ft | 402 kts | 67° |
| 2026-04-29 15:28 | 54.26477 | 29.12916 | 29904 ft | 406 kts | 67° |
| 2026-04-29 15:28 | 54.27480 | 29.17453 | 30487 ft | 411 kts | 67° |
| 2026-04-29 15:28 | 54.28498 | 29.22062 | 31044 ft | 417 kts | 67° |
| 2026-04-29 15:29 | 54.29547 | 29.26838 | 31572 ft | 422 kts | 67° |
| 2026-04-29 15:29 | 54.31627 | 29.36333 | 32302 ft | 427 kts | 67° |
| 2026-04-29 15:30 | 54.33720 | 29.45944 | 32984 ft | 432 kts | 67° |
| 2026-04-29 15:30 | 54.34775 | 29.50801 | 33301 ft | 433 kts | 66° |
| 2026-04-29 15:30 | 54.35843 | 29.55723 | 33607 ft | 435 kts | 66° |
| 2026-04-29 15:30 | 54.37251 | 29.62234 | 33979 ft | 438 kts | 66° |
| 2026-04-29 15:31 | 54.37954 | 29.65480 | 34235 ft | 439 kts | 67° |
| 2026-04-29 15:31 | 54.39016 | 29.70411 | 34548 ft | 443 kts | 67° |
| 2026-04-29 15:31 | 54.40079 | 29.75372 | 34847 ft | 447 kts | 67° |
| 2026-04-29 15:31 | 54.41155 | 29.80390 | 35132 ft | 451 kts | 67° |
| 2026-04-29 15:32 | 54.42252 | 29.85517 | 35195 ft | 462 kts | 68° |
| 2026-04-29 15:32 | 54.43355 | 29.90689 | 35215 ft | 473 kts | 68° |
| 2026-04-29 15:32 | 54.44496 | 29.96059 | 35221 ft | 483 kts | 68° |
| 2026-04-29 15:32 | 54.45661 | 30.01554 | 35218 ft | 494 kts | 68° |
| 2026-04-29 15:33 | 54.46841 | 30.07140 | 35221 ft | 503 kts | 68° |
| 2026-04-29 15:33 | 54.49267 | 30.18650 | 35215 ft | 515 kts | 68° |
| 2026-04-29 15:34 | 54.51707 | 30.30316 | 35215 ft | 518 kts | 68° |
| 2026-04-29 15:34 | 54.54558 | 30.44021 | 35211 ft | 519 kts | 68° |
| 2026-04-29 15:35 | 54.56590 | 30.53846 | 35204 ft | 519 kts | 68° |
| 2026-04-29 15:35 | 54.59016 | 30.65640 | 35198 ft | 520 kts | 69° |
| 2026-04-29 15:36 | 54.61405 | 30.77320 | 35191 ft | 521 kts | 69° |
| 2026-04-29 15:36 | 54.63802 | 30.89117 | 35186 ft | 521 kts | 69° |
| 2026-04-29 15:37 | 54.66209 | 31.01028 | 35181 ft | 522 kts | 69° |
| 2026-04-29 15:37 | 54.68440 | 31.13027 | 35180 ft | 521 kts | 70° |
| 2026-04-29 15:38 | 54.70584 | 31.24984 | 35177 ft | 521 kts | 70° |
| 2026-04-29 15:38 | 54.72716 | 31.36948 | 35172 ft | 521 kts | 70° |
| 2026-04-29 15:39 | 54.74828 | 31.48876 | 35166 ft | 521 kts | 70° |
| 2026-04-29 15:39 | 54.76953 | 31.60956 | 35163 ft | 521 kts | 70° |
| 2026-04-29 15:40 | 54.79061 | 31.73029 | 35161 ft | 522 kts | 71° |
| 2026-04-29 15:40 | 54.81157 | 31.85100 | 35158 ft | 523 kts | 71° |
| 2026-04-29 15:41 | 54.83254 | 31.97270 | 35154 ft | 523 kts | 71° |
| 2026-04-29 15:41 | 54.85324 | 32.09367 | 35156 ft | 524 kts | 71° |
| 2026-04-29 15:42 | 54.87382 | 32.21469 | 35157 ft | 524 kts | 71° |
| 2026-04-29 15:42 | 54.89438 | 32.33641 | 35156 ft | 524 kts | 72° |
| 2026-04-29 15:43 | 54.91497 | 32.45925 | 35156 ft | 524 kts | 72° |
| 2026-04-29 15:43 | 54.93523 | 32.58100 | 35157 ft | 523 kts | 72° |
| 2026-04-29 15:44 | 54.95561 | 32.70428 | 35155 ft | 523 kts | 72° |
| 2026-04-29 15:44 | 54.97551 | 32.82558 | 35153 ft | 524 kts | 72° |
| 2026-04-29 15:45 | 54.99552 | 32.94829 | 35155 ft | 524 kts | 72° |
| 2026-04-29 15:45 | 55.01534 | 33.07084 | 35151 ft | 525 kts | 72° |
| 2026-04-29 15:46 | 55.03506 | 33.19360 | 35150 ft | 526 kts | 73° |
| 2026-04-29 15:46 | 55.05461 | 33.31631 | 35147 ft | 525 kts | 72° |
| 2026-04-29 15:47 | 55.07414 | 33.43977 | 35149 ft | 519 kts | 72° |
| 2026-04-29 15:47 | 55.09293 | 33.55932 | 35144 ft | 509 kts | 72° |
| 2026-04-29 15:48 | 55.11161 | 33.67895 | 35149 ft | 513 kts | 73° |
| 2026-04-29 15:48 | 55.13035 | 33.79995 | 35149 ft | 516 kts | 73° |
| 2026-04-29 15:49 | 55.14901 | 33.92132 | 35145 ft | 518 kts | 73° |
| 2026-04-29 15:49 | 55.16745 | 34.04225 | 35149 ft | 520 kts | 73° |
| 2026-04-29 15:50 | 55.18599 | 34.16464 | 35138 ft | 521 kts | 73° |
| 2026-04-29 15:50 | 55.20454 | 34.28799 | 35139 ft | 522 kts | 73° |
| 2026-04-29 15:51 | 55.22238 | 34.40765 | 35139 ft | 522 kts | 73° |
| 2026-04-29 15:51 | 55.24048 | 34.53001 | 35139 ft | 522 kts | 73° |
| 2026-04-29 15:52 | 55.25863 | 34.65357 | 35130 ft | 517 kts | 74° |
| 2026-04-29 15:52 | 55.27614 | 34.77371 | 35126 ft | 514 kts | 75° |
| 2026-04-29 15:53 | 55.29397 | 34.89699 | 35129 ft | 511 kts | 75° |
| 2026-04-29 15:53 | 55.31132 | 35.01805 | 35125 ft | 508 kts | 75° |
| 2026-04-29 15:54 | 55.32844 | 35.13831 | 35128 ft | 507 kts | 75° |
| 2026-04-29 15:54 | 55.34541 | 35.25855 | 35121 ft | 507 kts | 75° |
| 2026-04-29 15:55 | 55.36228 | 35.37894 | 35119 ft | 507 kts | 75° |
| 2026-04-29 15:55 | 55.37910 | 35.49995 | 35116 ft | 512 kts | 75° |
| 2026-04-29 15:56 | 55.38403 | 35.62321 | 35101 ft | 499 kts | 99° |
| 2026-04-29 15:56 | 55.37717 | 35.68198 | 34864 ft | 477 kts | 101° |
| 2026-04-29 15:56 | 55.37069 | 35.73808 | 34069 ft | 470 kts | 101° |
| 2026-04-29 15:56 | 55.36412 | 35.79427 | 33120 ft | 474 kts | 101° |
| 2026-04-29 15:57 | 55.35751 | 35.85069 | 31916 ft | 482 kts | 100° |
| 2026-04-29 15:57 | 55.35087 | 35.90744 | 30072 ft | 487 kts | 100° |
| 2026-04-29 15:57 | 55.34601 | 35.96627 | 27847 ft | 487 kts | 96° |
| 2026-04-29 15:57 | 55.33789 | 36.02316 | 25882 ft | 480 kts | 103° |
| 2026-04-29 15:58 | 55.33128 | 36.07875 | 25082 ft | 456 kts | 100° |
| 2026-04-29 15:58 | 55.32476 | 36.13141 | 24283 ft | 452 kts | 99° |
| 2026-04-29 15:58 | 55.31840 | 36.18565 | 23461 ft | 448 kts | 100° |
| 2026-04-29 15:58 | 55.31217 | 36.23820 | 22660 ft | 444 kts | 99° |
| 2026-04-29 15:59 | 55.30584 | 36.29144 | 21846 ft | 440 kts | 100° |
| 2026-04-29 15:59 | 55.29966 | 36.34334 | 21052 ft | 437 kts | 100° |
| 2026-04-29 15:59 | 55.29329 | 36.39599 | 20001 ft | 438 kts | 100° |
| 2026-04-29 15:59 | 55.28662 | 36.44794 | 18947 ft | 438 kts | 101° |
| 2026-04-29 16:00 | 55.28003 | 36.49950 | 17933 ft | 435 kts | 101° |
| 2026-04-29 16:00 | 55.27343 | 36.55065 | 16897 ft | 425 kts | 100° |
| 2026-04-29 16:00 | 55.26701 | 36.60018 | 15863 ft | 416 kts | 101° |
| 2026-04-29 16:00 | 55.25586 | 36.64669 | 14775 ft | 412 kts | 120° |
| 2026-04-29 16:01 | 55.24090 | 36.68872 | 13767 ft | 403 kts | 118° |
| 2026-04-29 16:01 | 55.22637 | 36.73080 | 12727 ft | 397 kts | 121° |
| 2026-04-29 16:01 | 55.21233 | 36.77142 | 11629 ft | 384 kts | 119° |
| 2026-04-29 16:01 | 55.19850 | 36.81088 | 10431 ft | 371 kts | 120° |
| 2026-04-29 16:02 | 55.18536 | 36.84891 | 9243 ft | 361 kts | 119° |
| 2026-04-29 16:02 | 55.17226 | 36.88652 | 8027 ft | 352 kts | 119° |
| 2026-04-29 16:02 | 55.15971 | 36.92265 | 6839 ft | 345 kts | 119° |
| 2026-04-29 16:02 | 55.14770 | 36.95719 | 5780 ft | 322 kts | 119° |
| 2026-04-29 16:03 | 55.13658 | 36.98902 | 5265 ft | 292 kts | 119° |
| 2026-04-29 16:03 | 55.12640 | 37.01814 | 4839 ft | 269 kts | 118° |
| 2026-04-29 16:03 | 55.11688 | 37.04520 | 4592 ft | 253 kts | 121° |
| 2026-04-29 16:03 | 55.10512 | 37.06795 | 4467 ft | 251 kts | 134° |
| 2026-04-29 16:04 | 55.09512 | 37.09220 | 4448 ft | 243 kts | 102° |
| 2026-04-29 16:04 | 55.09584 | 37.12058 | 4481 ft | 232 kts | 63° |
| 2026-04-29 16:04 | 55.10525 | 37.14314 | 4514 ft | 228 kts | 42° |
| 2026-04-29 16:04 | 55.10936 | 37.15013 | 4517 ft | 229 kts | 40° |
| 2026-04-29 16:05 | 55.12160 | 37.16924 | 4468 ft | 233 kts | 36° |
| 2026-04-29 16:05 | 55.13491 | 37.18610 | 4432 ft | 235 kts | 31° |
| 2026-04-29 16:05 | 55.14896 | 37.20138 | 4411 ft | 237 kts | 28° |
| 2026-04-29 16:05 | 55.16325 | 37.21605 | 4395 ft | 239 kts | 27° |
| 2026-04-29 16:06 | 55.17786 | 37.23080 | 4383 ft | 240 kts | 27° |
| 2026-04-29 16:06 | 55.19324 | 37.24253 | 4246 ft | 242 kts | 9° |
| 2026-04-29 16:06 | 55.20956 | 37.25106 | 4118 ft | 248 kts | 23° |
| 2026-04-29 16:06 | 55.22506 | 37.26437 | 4142 ft | 246 kts | 23° |
| 2026-04-29 16:07 | 55.24063 | 37.27747 | 4141 ft | 245 kts | 23° |
| 2026-04-29 16:07 | 55.25597 | 37.29047 | 4050 ft | 246 kts | 23° |
| 2026-04-29 16:07 | 55.27155 | 37.30219 | 3974 ft | 241 kts | 11° |
| 2026-04-29 16:07 | 55.28786 | 37.29855 | 3940 ft | 238 kts | 334° |
| 2026-04-29 16:08 | 55.30023 | 37.27790 | 3603 ft | 252 kts | 307° |
| 2026-04-29 16:08 | 55.31181 | 37.25425 | 3259 ft | 256 kts | 325° |
| 2026-04-29 16:08 | 55.32672 | 37.23872 | 2902 ft | 242 kts | 332° |
| 2026-04-29 16:08 | 55.34127 | 37.22547 | 2572 ft | 226 kts | 335° |
| 2026-04-29 16:09 | 55.35518 | 37.21372 | 2472 ft | 216 kts | 335° |
| 2026-04-29 16:09 | 55.36882 | 37.20235 | 2465 ft | 214 kts | 335° |
| 2026-04-29 16:09 | 55.38214 | 37.19132 | 2467 ft | 214 kts | 335° |
| 2026-04-29 16:09 | 55.39575 | 37.18005 | 2470 ft | 214 kts | 335° |
| 2026-04-29 16:10 | 55.40951 | 37.16866 | 2473 ft | 215 kts | 335° |
| 2026-04-29 16:10 | 55.42309 | 37.15740 | 2477 ft | 215 kts | 335° |
| 2026-04-29 16:10 | 55.43676 | 37.14841 | 2441 ft | 209 kts | 354° |
| 2026-04-29 16:10 | 55.45060 | 37.15429 | 2479 ft | 202 kts | 22° |
| 2026-04-29 16:11 | 55.46341 | 37.16407 | 2474 ft | 198 kts | 20° |
| 2026-04-29 16:11 | 55.47594 | 37.17344 | 2470 ft | 194 kts | 20° |
| 2026-04-29 16:11 | 55.48829 | 37.18283 | 2470 ft | 191 kts | 20° |
| 2026-04-29 16:11 | 55.50050 | 37.19224 | 2468 ft | 189 kts | 21° |
| 2026-04-29 16:12 | 55.51250 | 37.20139 | 2345 ft | 191 kts | 20° |
| 2026-04-29 16:12 | 55.52434 | 37.21032 | 2120 ft | 177 kts | 20° |
| 2026-04-29 16:12 | 55.53525 | 37.21864 | 1853 ft | 164 kts | 19° |
| 2026-04-29 16:12 | 55.54501 | 37.22607 | 1649 ft | 144 kts | 19° |
| 2026-04-29 16:13 | 55.55377 | 37.23269 | 1432 ft | 131 kts | 19° |
| 2026-04-29 16:13 | 55.56176 | 37.23877 | 1248 ft | 118 kts | 18° |
| 2026-04-29 16:13 | 55.56914 | 37.24436 | 1100 ft | 118 kts | 18° |
| 2026-04-29 16:13 | 55.57664 | 37.25006 | 937 ft | 114 kts | 19° |
| 2026-04-29 16:14 | 55.58384 | 37.25562 | 781 ft | 115 kts | 18° |
| 2026-04-29 16:14 | 55.59124 | 37.26126 | 701 ft | 108 kts | 15° |
| 2026-04-29 16:14 | 55.59753 | 37.26565 | 695 ft | 77 kts | 20° |
| 2026-04-29 16:14 | 55.60002 | 37.26784 | 695 ft | 24 kts | 33° |
| 2026-04-29 16:15 | 55.60033 | 37.26822 | 695 ft | 0 kts | 44° |
| 2026-04-29 16:15 | 55.60042 | 37.26839 | 695 ft | 5 kts | 46° |
| 2026-04-29 16:15 | 55.60116 | 37.26969 | 695 ft | 14 kts | 51° |
| 2026-04-29 16:15 | 55.60157 | 37.27072 | 695 ft | 11 kts | 57° |
| 2026-04-29 16:16 | 55.60198 | 37.27204 | 695 ft | 14 kts | 98° |
| 2026-04-29 16:16 | 55.60142 | 37.27402 | 695 ft | 17 kts | 114° |
| 2026-04-29 16:16 | 55.60119 | 37.27545 | 695 ft | 5 kts | 79° |
| 2026-04-29 16:16 | 55.60120 | 37.27642 | 695 ft | 9 kts | 123° |
| 2026-04-29 16:17 | 55.60067 | 37.27698 | 695 ft | 9 kts | 149° |
| 2026-04-29 16:17 | 55.60009 | 37.27730 | 695 ft | 6 kts | 212° |
| 2026-04-29 16:17 | 55.59980 | 37.27668 | 695 ft | 9 kts | 230° |
| 2026-04-29 16:17 | 55.59915 | 37.27522 | 695 ft | 19 kts | 230° |
| 2026-04-29 16:18 | 55.59822 | 37.27343 | 695 ft | 20 kts | 227° |
| 2026-04-29 16:18 | 55.59727 | 37.27170 | 695 ft | 18 kts | 227° |
| 2026-04-29 16:18 | 55.59636 | 37.27005 | 695 ft | 19 kts | 227° |
| 2026-04-29 16:18 | 55.59547 | 37.26831 | 695 ft | 18 kts | 243° |
| 2026-04-29 16:19 | 55.59495 | 37.26619 | 695 ft | 19 kts | 251° |
| 2026-04-29 16:19 | 55.59444 | 37.26395 | 695 ft | 19 kts | 242° |
| 2026-04-29 16:19 | 55.59394 | 37.26170 | 695 ft | 18 kts | 246° |
| 2026-04-29 16:19 | 55.59372 | 37.26082 | 695 ft | 2 kts | 245° |
| 2026-04-29 16:20 | 55.59363 | 37.26041 | 695 ft | 4 kts | 258° |
| 2026-04-29 16:20 | 55.59368 | 37.25990 | 695 ft | 4 kts | 319° |
| 2026-04-29 16:20 | 55.59399 | 37.25961 | 695 ft | 5 kts | 334° |
| 2026-04-29 16:20 | 55.59439 | 37.25928 | 695 ft | 6 kts | 323° |
| 2026-04-29 16:21 | 55.59461 | 37.25852 | 695 ft | 7 kts | 244° |
| 2026-04-29 16:21 | 55.59433 | 37.25818 | 695 ft | 4 kts | 202° |
| 2026-04-29 16:21 | 55.59427 | 37.25813 | 695 ft | 0 kts | 202° |